Time;durP1;ratioP1;P1;durP2;ratioP2;P2;SDS_P1;SDS_P2;PMS_P1;PMS_P2;Temp;Humidity;BMP_temperature;BMP_pressure;BME280_temperature;BME280_humidity;BME280_pressure;Samples;Min_cycle;Max_cycle;Signal;HPM_P1;HPM_P2
2024/03/17 00:01:38;;;;;;;1.30;1.20;;;;;;;19.63;53.56;98175.78;5006067;28;20202;-26
2024/03/17 00:04:03;;;;;;;1.23;1.10;;;;;;;19.63;53.71;98171.53;5008150;28;20218;-26
2024/03/17 00:06:30;;;;;;;1.20;1.10;;;;;;;19.63;53.76;98175.78;5001854;28;20218;-31
2024/03/17 00:08:55;;;;;;;1.53;1.20;;;;;;;19.61;53.56;98173.16;5001144;28;20195;-31
2024/03/17 00:11:21;;;;;;;1.40;1.30;;;;;;;19.62;53.73;98179.09;5005697;28;20218;-26
2024/03/17 00:13:47;;;;;;;1.17;1.10;;;;;;;19.60;53.63;98184.13;5002182;28;20728;-26
2024/03/17 00:16:13;;;;;;;1.40;1.30;;;;;;;19.61;53.68;98187.56;5003999;28;20202;-27
2024/03/17 00:18:39;;;;;;;1.20;1.10;;;;;;;19.60;53.60;98186.69;5004074;28;20696;-27
2024/03/17 00:21:05;;;;;;;1.60;1.43;;;;;;;19.60;53.76;98191.78;5010383;28;20209;-29
2024/03/17 00:23:30;;;;;;;1.20;1.20;;;;;;;19.60;53.78;98193.47;4999235;28;20312;-27
2024/03/17 00:25:56;;;;;;;1.30;1.20;;;;;;;19.59;53.76;98186.59;5002205;28;20284;-27
2024/03/17 00:28:22;;;;;;;1.10;1.10;;;;;;;19.59;53.68;98184.06;4999831;28;20206;-26
2024/03/17 00:30:47;;;;;;;1.33;1.23;;;;;;;19.59;53.66;98181.50;5007370;28;20278;-26
2024/03/17 00:33:14;;;;;;;1.30;1.20;;;;;;;19.59;53.69;98181.50;5003877;28;20218;-28
2024/03/17 00:35:39;;;;;;;1.07;1.07;;;;;;;19.61;53.61;98187.56;5008316;28;20198;-26
2024/03/17 00:38:10;;;;;;;1.10;1.10;;;;;;;19.61;53.43;98185.91;5005635;28;20241;-28
2024/03/17 00:40:44;;;;;;;1.13;1.13;;;;;;;19.62;53.59;98182.53;5005346;28;20567;-27
2024/03/17 00:43:11;;;;;;;1.00;1.00;;;;;;;19.62;53.14;98174.88;5004415;28;20225;-26
2024/03/17 00:45:37;;;;;;;1.57;1.40;;;;;;;19.62;53.50;98171.47;5000686;28;20218;-27
2024/03/17 00:48:03;;;;;;;1.40;1.30;;;;;;;19.57;53.26;98166.16;5001762;28;20687;-35
2024/03/17 00:50:28;;;;;;;1.10;1.10;;;;;;;19.61;53.69;98168.06;5002320;28;20216;-26
2024/03/17 00:52:54;;;;;;;1.73;1.20;;;;;;;19.59;53.63;98169.66;5006135;28;20332;-27
2024/03/17 00:55:20;;;;;;;1.20;1.10;;;;;;;19.60;53.78;98173.94;5004942;28;20205;-26
2024/03/17 00:57:45;;;;;;;1.50;1.40;;;;;;;19.60;54.28;98170.53;5004914;28;20197;-28
2024/03/17 01:00:11;;;;;;;1.03;1.00;;;;;;;19.59;53.66;98173.88;5004413;28;20224;-30
2024/03/17 01:02:37;;;;;;;1.30;1.20;;;;;;;19.59;53.68;98167.09;5005210;28;20209;-33
2024/03/17 01:05:06;;;;;;;1.43;1.33;;;;;;;19.58;53.72;98167.91;5010380;28;20240;-35
2024/03/17 01:07:32;;;;;;;1.33;1.23;;;;;;;19.58;53.78;98162.81;5000753;28;20209;-28
2024/03/17 01:09:58;;;;;;;1.30;1.20;;;;;;;19.57;53.78;98161.03;5000780;28;20210;-25
2024/03/17 01:12:24;;;;;;;1.10;1.10;;;;;;;19.54;53.49;98153.25;5002863;28;20217;-27
2024/03/17 01:14:49;;;;;;;1.30;1.20;;;;;;;19.58;53.69;98157.72;5011871;28;20223;-27
2024/03/17 01:17:15;;;;;;;1.20;1.13;;;;;;;19.59;52.97;98163.66;5004311;28;20206;-28
2024/03/17 01:19:41;;;;;;;1.10;1.10;;;;;;;19.61;53.65;98156.97;5003152;28;20197;-26
2024/03/17 01:22:07;;;;;;;1.20;1.20;;;;;;;19.61;53.63;98155.31;5004605;28;20284;-26
2024/03/17 01:24:33;;;;;;;1.10;1.10;;;;;;;19.62;53.58;98149.41;5003275;28;20305;-28
2024/03/17 01:26:59;;;;;;;1.20;1.10;;;;;;;19.61;53.47;98152.75;5000925;28;20238;-26
2024/03/17 01:29:25;;;;;;;1.07;1.07;;;;;;;19.61;53.65;98156.97;5001315;28;20285;-28
2024/03/17 01:31:51;;;;;;;1.20;1.20;;;;;;;19.60;53.53;98145.88;5000034;28;20277;-27
2024/03/17 01:34:18;;;;;;;1.40;1.30;;;;;;;19.60;53.59;98142.47;5003881;28;20238;-28
2024/03/17 01:36:44;;;;;;;1.33;1.23;;;;;;;19.59;53.42;98138.16;5006837;28;20198;-27
2024/03/17 01:39:09;;;;;;;0.93;0.93;;;;;;;19.58;53.61;98139.88;5001173;28;20259;-27
2024/03/17 01:41:35;;;;;;;2.13;1.40;;;;;;;19.58;53.59;98134.75;5004693;28;20206;-27
2024/03/17 01:44:00;;;;;;;1.10;1.10;;;;;;;19.58;53.55;98133.88;5008106;28;20236;-28
2024/03/17 01:46:26;;;;;;;1.33;1.23;;;;;;;19.57;53.73;98130.44;5000839;28;20613;-27
2024/03/17 01:48:53;;;;;;;1.20;1.20;;;;;;;19.54;54.02;98117.56;4999542;28;20213;-29
2024/03/17 01:51:18;;;;;;;1.30;1.20;;;;;;;19.56;53.61;98125.28;4978833;28;20207;-36
2024/03/17 01:53:44;;;;;;;1.00;1.00;;;;;;;19.56;53.60;98128.72;4980296;28;20218;-28
2024/03/17 01:56:10;;;;;;;1.10;1.10;;;;;;;19.56;53.58;98127.81;5008967;28;20194;-27
2024/03/17 01:58:36;;;;;;;1.07;1.07;;;;;;;19.53;53.48;98118.38;5012522;28;20660;-28
2024/03/17 02:01:04;;;;;;;1.10;1.10;;;;;;;19.57;53.61;98127.91;4987141;28;20212;-28
2024/03/17 02:03:30;;;;;;;1.10;1.10;;;;;;;19.59;53.48;98133.06;4989711;28;20232;-26
2024/03/17 02:05:55;;;;;;;1.10;1.10;;;;;;;19.62;53.69;98130.66;4996465;28;20219;-28
2024/03/17 02:08:22;;;;;;;1.00;1.00;;;;;;;19.60;53.60;98122.94;5010260;28;20202;-27
2024/03/17 02:10:54;;;;;;;1.27;1.27;;;;;;;19.61;53.56;98119.59;5003546;28;20288;-27
2024/03/17 02:13:21;;;;;;;0.93;0.93;;;;;;;19.59;53.51;98113.56;5001493;28;20225;-26
2024/03/17 02:15:47;;;;;;;1.30;1.20;;;;;;;19.59;53.60;98107.56;4990096;28;20677;-27
2024/03/17 02:18:13;;;;;;;1.10;1.10;;;;;;;19.57;53.70;98104.09;5003344;28;20289;-28
2024/03/17 02:20:59;;;;;;;1.00;1.00;;;;;;;19.58;53.55;98103.28;5007004;28;20206;-27
2024/03/17 02:23:26;;;;;;;1.40;1.30;;;;;;;19.58;53.58;98108.38;5006029;28;20221;-28
2024/03/17 02:25:52;;;;;;;1.13;1.13;;;;;;;19.56;53.69;98110.88;5002917;28;20275;-26
2024/03/17 02:28:18;;;;;;;1.37;1.27;;;;;;;19.57;53.77;98110.06;5005227;28;20210;-27
2024/03/17 02:30:44;;;;;;;1.07;1.03;;;;;;;19.56;53.60;98104.88;5010454;28;20719;-26
2024/03/17 02:33:10;;;;;;;1.30;1.20;;;;;;;19.57;53.65;98096.44;5005503;28;20230;-27
2024/03/17 02:35:35;;;;;;;1.47;1.37;;;;;;;19.55;53.58;98101.47;4981196;28;20198;-28
2024/03/17 02:38:02;;;;;;;1.10;1.10;;;;;;;19.56;53.74;98103.22;4996605;28;20237;-29
2024/03/17 02:40:28;;;;;;;1.50;1.40;;;;;;;19.57;53.61;98101.56;5005713;28;20210;-26
2024/03/17 02:42:55;;;;;;;1.30;1.30;;;;;;;19.58;53.55;98095.63;4978686;28;20210;-27
2024/03/17 02:45:21;;;;;;;1.20;1.20;;;;;;;19.59;53.65;98105.03;5005303;28;20242;-27
2024/03/17 02:47:46;;;;;;;1.40;1.30;;;;;;;19.61;53.65;98103.44;4993464;28;20225;-26
2024/03/17 02:50:13;;;;;;;1.10;1.10;;;;;;;19.60;53.42;98106.78;5002912;28;20289;-28
2024/03/17 02:52:38;;;;;;;1.20;1.20;;;;;;;19.60;53.73;98107.63;5005551;28;20214;-26
2024/03/17 02:55:05;;;;;;;1.20;1.07;;;;;;;19.51;53.49;98097.03;5004455;28;20216;-27
2024/03/17 02:57:32;;;;;;;1.20;1.10;;;;;;;19.60;53.59;98106.78;4990835;28;20212;-27
2024/03/17 02:59:58;;;;;;;1.10;1.10;;;;;;;19.58;53.45;98101.63;5002925;28;20209;-27
2024/03/17 03:02:24;;;;;;;1.20;1.20;;;;;;;19.58;53.50;98105.84;4997814;28;20210;-29
2024/03/17 03:04:50;;;;;;;1.10;1.10;;;;;;;19.49;53.45;98095.22;5003351;28;20288;-26
2024/03/17 03:07:15;;;;;;;1.20;1.10;;;;;;;19.55;53.61;98105.69;4999390;28;20238;-27
2024/03/17 03:09:41;;;;;;;1.13;1.13;;;;;;;19.56;53.72;98110.88;4998535;28;20213;-26
2024/03/17 03:12:07;;;;;;;1.77;1.17;;;;;;;19.56;53.62;98112.53;5009607;28;20201;-31
2024/03/17 03:14:33;;;;;;;1.10;1.10;;;;;;;19.55;53.76;98114.22;4999624;28;20269;-28
2024/03/17 03:16:58;;;;;;;1.23;1.23;;;;;;;19.55;53.62;98113.34;4999508;28;20241;-28
2024/03/17 03:19:25;;;;;;;1.20;1.10;;;;;;;19.55;53.60;98110.78;5002966;28;20219;-28
2024/03/17 03:21:51;;;;;;;1.20;1.20;;;;;;;19.55;53.70;98111.69;5004013;28;20253;-28
2024/03/17 03:24:17;;;;;;;1.10;1.10;;;;;;;19.56;53.57;98109.97;5009604;28;20304;-26
2024/03/17 03:26:43;;;;;;;1.30;1.20;;;;;;;19.58;53.67;98105.84;5000885;28;20226;-31
2024/03/17 03:29:10;;;;;;;1.10;1.10;;;;;;;19.55;53.42;98104.03;5008236;28;20217;-29
2024/03/17 03:31:35;;;;;;;1.20;1.20;;;;;;;19.60;53.56;98104.25;5002170;28;20202;-29
2024/03/17 03:34:02;;;;;;;1.30;1.20;;;;;;;19.60;53.46;98109.34;5008106;28;20295;-28
2024/03/17 03:36:28;;;;;;;1.03;1.03;;;;;;;19.60;53.41;98109.34;4994133;28;20203;-26
2024/03/17 03:38:54;;;;;;;1.10;1.10;;;;;;;19.59;53.46;98117.78;5001382;28;20612;-28
2024/03/17 03:41:19;;;;;;;1.40;1.30;;;;;;;19.59;53.66;98115.22;5005299;28;20210;-28
2024/03/17 03:43:48;;;;;;;1.10;1.10;;;;;;;19.58;53.45;98116.03;5010212;28;20223;-27
2024/03/17 03:46:13;;;;;;;1.10;1.10;;;;;;;19.58;53.59;98108.38;5000967;28;20700;-28
2024/03/17 03:48:39;;;;;;;1.17;1.17;;;;;;;19.57;53.62;98107.50;5004582;28;20260;-27
2024/03/17 03:51:06;;;;;;;1.30;1.30;;;;;;;19.57;53.59;98111.75;5007116;28;20675;-26
2024/03/17 03:53:32;;;;;;;1.37;1.30;;;;;;;19.55;53.57;98105.69;4998507;28;20241;-27
2024/03/17 03:55:59;;;;;;;1.50;1.40;;;;;;;19.57;53.51;98109.19;4990892;28;20260;-25
2024/03/17 03:58:25;;;;;;;1.40;1.30;;;;;;;19.56;53.62;98107.44;5000015;28;20205;-34
2024/03/17 04:00:50;;;;;;;1.40;1.30;;;;;;;19.57;53.54;98107.50;4996309;28;20213;-31
2024/03/17 04:03:16;;;;;;;1.30;1.20;;;;;;;19.56;53.65;98098.13;5005199;28;20692;-27
2024/03/17 04:05:41;;;;;;;1.20;1.10;;;;;;;19.56;53.42;98103.22;4996976;28;20221;-26
2024/03/17 04:08:08;;;;;;;1.20;1.20;;;;;;;19.57;53.44;98099.00;4999729;28;20214;-27
2024/03/17 04:10:35;;;;;;;1.40;1.30;;;;;;;19.57;53.47;98086.25;5001721;28;20202;-26
2024/03/17 04:13:00;;;;;;;1.03;1.03;;;;;;;19.60;53.29;98096.59;5003359;28;20234;-27
2024/03/17 04:15:26;;;;;;;1.00;1.00;;;;;;;19.60;53.31;98099.16;5001423;28;20272;-26
2024/03/17 04:17:52;;;;;;;1.10;1.10;;;;;;;19.60;53.58;98100.00;4997032;28;20236;-26
2024/03/17 04:20:18;;;;;;;1.27;1.20;;;;;;;19.59;53.37;98099.94;4999846;28;20210;-27
2024/03/17 04:22:43;;;;;;;1.27;1.17;;;;;;;19.59;53.38;98093.16;4997269;28;20741;-26
2024/03/17 04:25:13;;;;;;;1.20;1.20;;;;;;;19.58;53.59;98093.97;4988689;28;20276;-28
2024/03/17 04:27:38;;;;;;;1.07;1.07;;;;;;;19.58;53.51;98093.09;5002364;28;20214;-31
2024/03/17 04:30:05;;;;;;;1.20;1.20;;;;;;;19.59;53.50;98105.03;5004863;28;20214;-27
2024/03/17 04:32:31;;;;;;;1.10;1.10;;;;;;;19.58;53.55;98100.75;5002966;28;20229;-26
2024/03/17 04:34:57;;;;;;;1.47;1.37;;;;;;;19.57;53.77;98104.09;5006133;28;20222;-26
2024/03/17 04:37:22;;;;;;;1.30;1.20;;;;;;;19.56;53.51;98100.66;4999051;28;20236;-27
2024/03/17 04:39:48;;;;;;;1.20;1.20;;;;;;;19.57;53.67;98101.56;4990858;28;20209;-27
2024/03/17 04:42:15;;;;;;;1.20;1.20;;;;;;;19.57;53.53;98096.44;4998847;28;20209;-31
2024/03/17 04:44:41;;;;;;;1.37;1.27;;;;;;;19.55;53.55;98101.47;5010192;28;20225;-27
2024/03/17 04:47:07;;;;;;;1.10;1.10;;;;;;;19.56;53.39;98094.69;4999661;28;20225;-27
2024/03/17 04:49:41;;;;;;;1.20;1.10;;;;;;;19.57;53.29;98094.75;4998731;28;20219;-28
2024/03/17 04:52:07;;;;;;;1.20;1.20;;;;;;;19.57;53.58;98093.91;5002014;28;20213;-28
2024/03/17 04:54:33;;;;;;;1.10;1.10;;;;;;;19.58;53.34;98095.63;4998118;28;20223;-28
2024/03/17 04:56:58;;;;;;;1.40;1.30;;;;;;;19.60;53.38;98096.59;5002853;28;20700;-28
2024/03/17 04:59:24;;;;;;;1.20;1.20;;;;;;;19.59;53.41;98095.72;5000336;28;20213;-26
2024/03/17 05:01:50;;;;;;;1.43;1.33;;;;;;;19.59;53.41;98103.34;4999515;28;20213;-26
2024/03/17 05:04:15;;;;;;;1.20;1.20;;;;;;;19.57;53.34;98102.41;5002077;28;20229;-27
2024/03/17 05:06:47;;;;;;;1.20;1.20;;;;;;;19.57;53.50;98099.84;5001020;28;20226;-27
2024/03/17 05:09:13;;;;;;;1.20;1.20;;;;;;;19.56;53.52;98098.13;5001641;28;20198;-26
2024/03/17 05:11:39;;;;;;;1.20;1.10;;;;;;;19.55;53.33;98104.03;5009831;28;20690;-28
2024/03/17 05:14:05;;;;;;;1.00;1.00;;;;;;;19.55;53.71;98101.47;5007778;28;20225;-29
2024/03/17 05:16:31;;;;;;;1.30;1.20;;;;;;;19.56;53.51;98107.44;5004951;28;20204;-27
2024/03/17 05:18:56;;;;;;;1.13;1.13;;;;;;;19.55;53.57;98110.78;4996799;28;20676;-26
2024/03/17 05:21:23;;;;;;;1.30;1.20;;;;;;;19.56;53.52;98102.34;5005149;28;20213;-27
2024/03/17 05:23:49;;;;;;;1.10;1.10;;;;;;;19.56;53.53;98112.53;5004155;28;20218;-26
2024/03/17 05:26:15;;;;;;;1.40;1.30;;;;;;;19.53;53.53;98103.06;5004534;28;20349;-26
2024/03/17 05:28:40;;;;;;;1.17;1.07;;;;;;;19.55;53.60;98101.47;5004967;28;20206;-27
2024/03/17 05:31:06;;;;;;;1.17;1.17;;;;;;;19.55;53.47;98100.59;5000274;28;20669;-28
2024/03/17 05:33:31;;;;;;;1.10;1.10;;;;;;;19.57;53.42;98102.41;5001337;28;20386;-26
2024/03/17 05:35:58;;;;;;;1.20;1.20;;;;;;;19.58;53.34;98096.53;5003181;28;20212;-26
2024/03/17 05:38:25;;;;;;;1.47;1.37;;;;;;;19.58;53.35;98091.41;4996132;28;20211;-26
2024/03/17 05:40:57;;;;;;;1.10;1.10;;;;;;;19.58;53.37;98083.78;5006270;28;20198;-27
2024/03/17 05:43:26;;;;;;;1.40;1.30;;;;;;;19.59;53.25;98092.28;5002577;28;20284;-27
2024/03/17 05:45:53;;;;;;;1.10;1.10;;;;;;;19.59;53.48;98099.94;5006462;28;20222;-26
2024/03/17 05:48:18;;;;;;;1.40;1.30;;;;;;;19.59;53.41;98107.56;5000153;28;20280;-28
2024/03/17 05:50:44;;;;;;;1.20;1.20;;;;;;;19.57;53.26;98116.84;4999658;28;20198;-29
2024/03/17 05:53:10;;;;;;;1.23;1.23;;;;;;;19.57;53.41;98112.59;4999988;28;20229;-26
2024/03/17 05:55:36;;;;;;;1.40;1.30;;;;;;;19.50;53.48;98102.94;5003972;28;20191;-27
2024/03/17 05:58:02;;;;;;;1.40;1.30;;;;;;;19.56;53.51;98115.97;5000529;28;20202;-26
2024/03/17 06:00:28;;;;;;;1.30;1.20;;;;;;;19.56;52.90;98120.19;5010091;28;20216;-27
2024/03/17 06:02:53;;;;;;;1.30;1.20;;;;;;;19.56;53.43;98122.72;5005132;28;20202;-27
2024/03/17 06:05:19;;;;;;;1.47;1.37;;;;;;;19.55;53.39;98118.44;5004080;28;20605;-36
2024/03/17 06:07:46;;;;;;;1.40;1.30;;;;;;;19.55;53.61;98119.31;4998633;28;20687;-26
2024/03/17 06:10:12;;;;;;;1.20;1.20;;;;;;;19.55;53.47;98121.88;5000248;28;20586;-27
2024/03/17 06:12:38;;;;;;;1.40;1.30;;;;;;;19.56;53.23;98120.19;5000992;28;20220;-28
2024/03/17 06:15:04;;;;;;;1.20;1.20;;;;;;;19.56;53.39;98108.31;5006121;28;20201;-28
2024/03/17 06:17:30;;;;;;;1.00;1.00;;;;;;;19.55;53.42;98108.25;5002486;28;20248;-31
2024/03/17 06:19:57;;;;;;;1.57;1.47;;;;;;;19.60;53.42;98117.00;4998400;28;20209;-29
2024/03/17 06:22:23;;;;;;;1.30;1.20;;;;;;;19.59;53.36;98121.19;4998649;28;20206;-27
2024/03/17 06:24:49;;;;;;;1.40;1.30;;;;;;;19.59;53.30;98115.22;4998518;28;20226;-28
2024/03/17 06:27:15;;;;;;;1.13;1.13;;;;;;;19.58;53.27;98114.38;4998278;28;20229;-28
2024/03/17 06:29:40;;;;;;;1.20;1.20;;;;;;;19.58;53.38;98118.59;4998833;28;20210;-30
2024/03/17 06:32:06;;;;;;;1.17;1.17;;;;;;;19.56;53.41;98121.06;4994725;28;20575;-26
2024/03/17 06:34:32;;;;;;;1.40;1.30;;;;;;;19.57;53.47;98127.91;5000395;28;20383;-26
2024/03/17 06:36:59;;;;;;;1.30;1.30;;;;;;;19.56;53.51;98132.94;4996565;28;20259;-27
2024/03/17 06:39:24;;;;;;;1.20;1.20;;;;;;;19.55;53.47;98137.19;4998276;28;20205;-28
2024/03/17 06:41:50;;;;;;;1.30;1.20;;;;;;;19.54;53.54;98125.22;5003382;28;20202;-26
2024/03/17 06:44:15;;;;;;;1.40;1.30;;;;;;;19.55;53.37;98132.06;5001116;28;20782;-26
2024/03/17 06:46:41;;;;;;;1.20;1.20;;;;;;;19.55;53.48;98131.19;4997405;28;20276;-27
2024/03/17 06:49:07;;;;;;;1.57;1.47;;;;;;;19.54;53.57;98125.22;4997318;28;20284;-29
2024/03/17 06:51:33;;;;;;;1.50;1.40;;;;;;;19.54;53.27;98127.75;5005463;28;20738;-29
2024/03/17 06:53:58;;;;;;;1.20;1.20;;;;;;;19.54;53.31;98129.47;5001315;28;20222;-27
2024/03/17 06:56:25;;;;;;;1.17;1.17;;;;;;;19.55;53.30;98129.53;4999526;28;20237;-27
2024/03/17 06:58:51;;;;;;;1.20;1.20;;;;;;;19.50;53.75;98119.91;4995311;28;20660;-26
2024/03/17 07:01:17;;;;;;;1.10;1.10;;;;;;;19.56;53.22;98120.19;4997922;28;20205;-35
2024/03/17 07:03:43;;;;;;;1.53;1.43;;;;;;;19.58;53.49;98121.13;4995626;28;20233;-26
2024/03/17 07:06:09;;;;;;;1.40;1.30;;;;;;;19.58;53.45;98119.47;4997456;28;20245;-27
2024/03/17 07:08:35;;;;;;;1.40;1.30;;;;;;;19.53;53.42;98108.19;4996892;28;20568;-25
2024/03/17 07:11:05;;;;;;;1.20;1.20;;;;;;;19.52;53.46;98105.56;4995554;28;20202;-27
2024/03/17 07:13:41;;;;;;;1.00;1.00;;;;;;;19.59;53.31;98116.09;4997798;28;20221;-26
2024/03/17 07:16:07;;;;;;;1.43;1.33;;;;;;;19.60;53.43;98122.94;4988548;28;20202;-27
2024/03/17 07:18:33;;;;;;;1.40;1.30;;;;;;;19.52;53.46;98103.88;4992415;28;20741;-29
2024/03/17 07:20:59;;;;;;;1.50;1.40;;;;;;;19.57;53.44;98115.16;4986260;28;20235;-28
2024/03/17 07:23:25;;;;;;;1.30;1.20;;;;;;;19.60;53.31;98130.59;4996564;28;20276;-29
2024/03/17 07:26:01;;;;;;;1.10;1.10;;;;;;;19.58;53.44;98121.13;4995131;28;20574;-27
2024/03/17 07:28:26;;;;;;;1.20;1.20;;;;;;;19.58;53.52;98131.34;5000448;28;20210;-35
2024/03/17 07:30:56;;;;;;;1.40;1.30;;;;;;;19.57;53.37;98132.16;5006540;28;20216;-26
2024/03/17 07:33:22;;;;;;;1.30;1.20;;;;;;;19.57;53.29;98122.81;4999445;28;20697;-27
2024/03/17 07:35:55;;;;;;;1.23;1.23;;;;;;;19.59;53.34;98133.94;4997844;28;20241;-29
2024/03/17 07:38:20;;;;;;;1.40;1.30;;;;;;;19.60;53.18;98128.03;4998576;28;20197;-27
2024/03/17 07:40:58;;;;;;;1.20;1.20;;;;;;;19.62;53.28;98134.09;5000114;28;20268;-27
2024/03/17 07:43:24;;;;;;;2.70;1.30;;;;;;;19.65;53.16;98129.13;4997136;28;20230;-27
2024/03/17 07:46:06;;;;;;;1.53;1.43;;;;;;;19.68;52.55;98130.94;4995400;28;20224;-26
2024/03/17 07:48:34;;;;;;;1.40;1.30;;;;;;;19.66;52.89;98115.56;4992738;28;20203;-27
2024/03/17 07:51:02;;;;;;;1.20;1.20;;;;;;;19.67;52.93;98119.00;4996067;28;20206;-27
2024/03/17 07:53:27;;;;;;;1.53;1.43;;;;;;;19.66;53.02;98119.81;4992722;28;20227;-28
2024/03/17 07:56:12;;;;;;;1.23;1.20;;;;;;;19.63;53.23;98120.53;4994390;28;20562;-27
2024/03/17 07:58:39;;;;;;;1.10;1.10;;;;;;;19.63;53.25;98119.69;4987387;28;20207;-25
2024/03/17 08:01:09;;;;;;;1.40;1.30;;;;;;;19.62;53.12;98116.25;4992893;28;20218;-27
2024/03/17 08:03:36;;;;;;;1.53;1.43;;;;;;;19.63;53.31;98119.69;4996752;28;20218;-32
2024/03/17 08:06:07;;;;;;;1.60;1.50;;;;;;;19.63;53.37;98117.97;4998952;28;20241;-28
2024/03/17 08:08:33;;;;;;;1.47;1.37;;;;;;;19.64;53.35;98118.88;5004955;28;20202;-27
2024/03/17 08:10:58;;;;;;;1.40;1.30;;;;;;;19.65;53.25;98121.47;5001783;28;20292;-31
2024/03/17 08:13:24;;;;;;;1.50;1.40;;;;;;;19.65;53.24;98118.94;4999579;28;20296;-26
2024/03/17 08:16:02;;;;;;;1.10;1.10;;;;;;;19.67;53.26;98121.56;4981662;28;20217;-31
2024/03/17 08:18:27;;;;;;;1.50;1.40;;;;;;;19.67;53.63;98119.00;4996130;28;20214;-27
2024/03/17 08:20:56;;;;;;;1.30;1.20;;;;;;;19.68;53.20;98118.19;5003187;28;20548;-27
2024/03/17 08:23:24;;;;;;;1.50;1.40;;;;;;;19.67;53.15;98119.91;5002424;28;20222;-30
2024/03/17 08:25:54;;;;;;;1.50;1.40;;;;;;;19.66;53.18;98125.78;4996013;28;20806;-30
2024/03/17 08:28:21;;;;;;;1.20;1.10;;;;;;;19.65;53.18;98123.16;4997070;28;20271;-27
2024/03/17 08:30:57;;;;;;;1.40;1.30;;;;;;;19.64;53.31;98113.75;4994016;28;20218;-26
2024/03/17 08:33:23;;;;;;;1.47;1.37;;;;;;;19.62;52.79;98108.59;4996499;28;20218;-31
2024/03/17 08:35:58;;;;;;;1.40;1.30;;;;;;;19.61;53.48;98111.97;4997688;28;20201;-26
2024/03/17 08:38:25;;;;;;;1.50;1.40;;;;;;;19.61;53.38;98109.41;4991389;28;20209;-28
2024/03/17 08:40:51;;;;;;;1.60;1.50;;;;;;;19.60;53.22;98107.63;5006955;28;20714;-27
2024/03/17 08:43:17;;;;;;;1.53;1.43;;;;;;;19.60;53.23;98106.78;5002727;28;20229;-27
2024/03/17 08:45:43;;;;;;;1.50;1.40;;;;;;;19.60;53.38;98099.16;5001501;28;20226;-29
2024/03/17 08:48:10;;;;;;;1.60;1.50;;;;;;;19.61;53.41;98098.31;5002734;28;20757;-26
2024/03/17 08:50:36;;;;;;;2.23;2.07;;;;;;;19.60;52.83;98092.34;4996887;28;20210;-34
2024/03/17 08:53:02;;;;;;;6.70;6.10;;;;;;;19.59;50.62;98084.63;4997726;28;20234;-33
2024/03/17 08:55:27;;;;;;;9.47;8.57;;;;;;;19.58;50.02;98088.00;4998150;28;20271;-28
2024/03/17 08:57:53;;;;;;;8.97;8.17;;;;;;;19.55;50.07;98091.28;4991608;28;20202;-26
2024/03/17 09:00:18;;;;;;;8.77;7.87;;;;;;;19.53;50.57;98089.44;4994076;28;20232;-28
2024/03/17 09:02:44;;;;;;;10.63;7.60;;;;;;;19.52;51.11;98091.16;4997482;28;20228;-28
2024/03/17 09:05:12;;;;;;;9.43;7.50;;;;;;;19.52;51.93;98087.72;4997691;28;20209;-26
2024/03/17 09:07:38;;;;;;;7.67;6.97;;;;;;;19.51;51.60;98083.44;5002114;28;20217;-27
2024/03/17 09:10:05;;;;;;;7.23;6.53;;;;;;;19.50;51.93;98079.09;5000046;28;20205;-29
2024/03/17 09:12:30;;;;;;;7.10;6.40;;;;;;;19.50;51.98;98082.53;4990644;28;20229;-33
2024/03/17 09:14:56;;;;;;;6.80;6.17;;;;;;;19.49;52.06;98079.91;4990810;28;20232;-27
2024/03/17 09:17:22;;;;;;;6.83;6.23;;;;;;;19.50;52.25;98074.91;5005152;28;20195;-26
2024/03/17 09:19:47;;;;;;;5.97;5.43;;;;;;;19.50;52.40;98076.56;4985429;28;20573;-27
2024/03/17 09:22:13;;;;;;;5.87;5.37;;;;;;;19.51;52.25;98083.44;5002314;28;21641;-27
2024/03/17 09:24:40;;;;;;;6.50;5.90;;;;;;;19.52;52.38;98072.41;5005779;28;20685;-29
2024/03/17 09:27:06;;;;;;;5.97;5.37;;;;;;;19.54;52.34;98076.78;5003214;28;20790;-25
2024/03/17 09:29:32;;;;;;;6.57;5.97;;;;;;;19.54;52.39;98069.13;5003450;28;20213;-28
2024/03/17 09:31:58;;;;;;;6.37;5.43;;;;;;;19.55;52.23;98070.88;5005451;28;20593;-28
2024/03/17 09:34:24;;;;;;;5.87;5.27;;;;;;;19.56;52.55;98066.63;5008492;28;20237;-27
2024/03/17 09:36:50;;;;;;;5.70;5.20;;;;;;;19.56;52.94;98069.19;5000162;28;20657;-28
2024/03/17 09:39:16;;;;;;;5.93;5.33;;;;;;;19.57;52.42;98065.84;5008143;28;20706;-30
2024/03/17 09:41:42;;;;;;;5.47;4.90;;;;;;;19.55;52.57;98064.91;5000210;28;20238;-27
2024/03/17 09:44:11;;;;;;;5.83;4.97;;;;;;;19.55;52.57;98063.25;4988180;28;20702;-27
2024/03/17 09:46:36;;;;;;;6.70;5.03;;;;;;;19.55;52.55;98059.81;4994169;28;20221;-28
2024/03/17 09:49:02;;;;;;;5.50;4.70;;;;;;;19.54;52.50;98050.41;5004623;28;20204;-29
2024/03/17 09:51:28;;;;;;;5.17;4.67;;;;;;;19.54;52.59;98037.69;5002470;28;20206;-26
2024/03/17 09:53:53;;;;;;;5.00;4.50;;;;;;;19.53;52.71;98031.69;5012294;28;20718;-26
2024/03/17 09:56:20;;;;;;;4.43;4.03;;;;;;;19.54;52.64;98033.44;5004079;28;20241;-28
2024/03/17 09:58:49;;;;;;;4.60;4.20;;;;;;;19.55;52.52;98032.66;5011186;28;20212;-28
2024/03/17 10:01:15;;;;;;;4.67;4.27;;;;;;;19.57;52.50;98025.06;5003940;28;20632;-28
2024/03/17 10:04:03;;;;;;;4.73;4.17;;;;;;;19.51;52.56;98007.78;5008606;28;20257;-28
2024/03/17 10:06:29;;;;;;;3.87;3.57;;;;;;;19.58;52.62;98016.59;4998082;28;20226;-28
2024/03/17 10:08:56;;;;;;;5.97;4.27;;;;;;;19.57;52.58;98017.41;5009351;28;20198;-28
2024/03/17 10:11:32;;;;;;;4.47;4.00;;;;;;;19.58;52.67;98019.16;5010872;28;20684;-26
2024/03/17 10:14:03;;;;;;;3.90;3.60;;;;;;;19.57;52.67;98023.38;4996167;28;20237;-27
2024/03/17 10:16:31;;;;;;;6.03;3.73;;;;;;;19.57;52.73;98020.81;5003371;28;20233;-27
2024/03/17 10:19:10;;;;;;;4.30;3.90;;;;;;;19.56;52.60;98021.63;5000001;28;20590;-28
2024/03/17 10:21:36;;;;;;;3.67;3.37;;;;;;;19.55;52.72;98019.91;4999094;28;20198;-29
2024/03/17 10:24:09;;;;;;;4.27;3.87;;;;;;;19.54;52.87;98019.84;5001354;28;20226;-26
2024/03/17 10:26:46;;;;;;;4.37;3.50;;;;;;;19.54;52.74;98025.78;4997843;28;20222;-26
2024/03/17 10:29:35;;;;;;;3.60;3.30;;;;;;;19.55;52.70;98027.53;4993199;28;20593;-38
2024/03/17 10:32:16;;;;;;;3.57;3.27;;;;;;;19.55;52.67;98026.66;5000860;28;20730;-26
2024/03/17 10:34:43;;;;;;;4.57;3.60;;;;;;;19.56;52.84;98023.28;4995824;28;20226;-26
2024/03/17 10:37:17;;;;;;;4.17;3.50;;;;;;;19.57;52.86;98017.41;4993475;28;20661;-28
2024/03/17 10:39:43;;;;;;;3.87;3.47;;;;;;;19.57;52.57;98018.25;4996885;28;20580;-28
2024/03/17 10:42:10;;;;;;;5.00;3.33;;;;;;;19.58;52.53;98030.22;5000141;28;20205;-27
2024/03/17 10:44:37;;;;;;;3.70;3.40;;;;;;;19.57;52.67;98023.38;5006889;28;20229;-26
2024/03/17 10:47:04;;;;;;;3.73;3.40;;;;;;;19.58;52.73;98022.59;5004283;28;20225;-30
2024/03/17 10:49:31;;;;;;;3.57;3.27;;;;;;;19.58;52.77;98019.16;4999627;28;20206;-29
2024/03/17 10:52:07;;;;;;;3.60;3.20;;;;;;;19.57;52.72;98017.41;5007414;28;20202;-33
2024/03/17 10:54:33;;;;;;;3.70;3.23;;;;;;;19.57;52.82;98020.81;5003975;28;20251;-27
2024/03/17 10:57:31;;;;;;;3.47;3.17;;;;;;;19.56;52.74;98010.56;5000323;28;20202;-29
2024/03/17 10:59:57;;;;;;;3.37;3.07;;;;;;;19.57;52.88;98012.31;4962753;28;20209;-29
2024/03/17 11:02:32;;;;;;;3.20;3.00;;;;;;;19.57;52.83;98012.31;4992513;28;20205;-24
2024/03/17 11:04:59;;;;;;;3.30;3.00;;;;;;;19.57;52.90;98013.16;5011465;28;20240;-27
2024/03/17 11:07:26;;;;;;;3.20;2.87;;;;;;;19.53;52.94;98015.50;4983737;28;20233;-26
2024/03/17 11:09:53;;;;;;;5.40;3.33;;;;;;;19.55;52.79;98012.25;4963133;28;20207;-32
2024/03/17 11:12:37;;;;;;;2.90;2.70;;;;;;;19.55;52.95;97996.06;4985837;28;20206;-27
2024/03/17 11:15:29;;;;;;;2.93;2.63;;;;;;;19.49;52.93;97986.47;5001486;28;20233;-30
2024/03/17 11:18:18;;;;;;;4.13;2.73;;;;;;;19.55;53.01;97988.41;5000211;28;20199;-27
2024/03/17 11:20:56;;;;;;;4.80;2.93;;;;;;;19.55;52.90;97983.31;5009474;28;20205;-29
2024/03/17 11:23:32;;;;;;;2.53;2.33;;;;;;;19.49;52.99;97972.84;5004640;28;20232;-29
2024/03/17 11:25:58;;;;;;;4.97;2.97;;;;;;;19.56;52.90;97978.28;5002370;28;20224;-26
2024/03/17 11:28:42;;;;;;;3.47;2.90;;;;;;;19.57;53.06;97977.47;5004364;28;20689;-26
2024/03/17 11:31:33;;;;;;;4.37;2.83;;;;;;;19.59;52.78;97975.88;5010452;28;20205;-29
2024/03/17 11:34:07;;;;;;;2.90;2.60;;;;;;;19.59;52.86;97982.66;4999676;28;20225;-27
2024/03/17 11:36:36;;;;;;;3.90;2.60;;;;;;;19.58;52.90;97978.34;5001228;28;20194;-27